Time;durP1;ratioP1;P1;durP2;ratioP2;P2;SDS_P1;SDS_P2;PMS_P1;PMS_P2;Temp;Humidity;BMP_temperature;BMP_pressure;BME280_temperature;BME280_humidity;BME280_pressure;Samples;Min_cycle;Max_cycle;Signal;HPM_P1;HPM_P2
2022/01/11 00:00:17;;;;;;;20.40;8.90;;;;;;;6.53;53.60;102682.66;5073701;28;20082;-75
2022/01/11 00:02:44;;;;;;;21.55;9.75;;;;;;;6.53;53.67;102679.06;5099046;28;20129;-77
2022/01/11 00:05:20;;;;;;;17.60;8.75;;;;;;;6.52;53.55;102678.19;5088985;28;20130;-77
2022/01/11 00:07:47;;;;;;;22.27;9.13;;;;;;;6.52;53.35;102682.69;5068531;28;20486;-77
2022/01/11 00:10:22;;;;;;;19.58;8.52;;;;;;;6.50;53.46;102682.75;5078663;28;20052;-77
2022/01/11 00:12:49;;;;;;;20.05;8.52;;;;;;;6.49;53.60;102684.53;5087067;28;20091;-76
2022/01/11 00:15:16;;;;;;;18.38;8.40;;;;;;;6.47;53.67;102675.59;5078354;28;20066;-77
2022/01/11 00:17:42;;;;;;;23.83;9.85;;;;;;;6.47;53.59;102683.69;5091185;28;20093;-76
2022/01/11 00:20:12;;;;;;;20.00;8.93;;;;;;;6.48;53.53;102688.16;5072519;28;20109;-76
2022/01/11 00:22:57;;;;;;;21.40;8.95;;;;;;;6.48;53.33;102682.75;5092114;28;20123;-76
2022/01/11 00:25:24;;;;;;;23.08;9.50;;;;;;;6.46;53.54;102678.31;5068457;28;20138;-77
2022/01/11 00:27:51;;;;;;;20.73;8.80;;;;;;;6.46;53.57;102679.19;5071739;28;20048;-77
2022/01/11 00:30:18;;;;;;;21.70;8.93;;;;;;;6.46;53.55;102681.00;5090394;28;20495;-76
2022/01/11 00:32:50;;;;;;;23.20;9.52;;;;;;;6.45;53.63;102679.22;5074210;28;20052;-77
2022/01/11 00:35:21;;;;;;;19.58;9.32;;;;;;;6.41;53.27;102673.03;5089146;28;20105;-76
2022/01/11 00:37:49;;;;;;;24.15;9.57;;;;;;;6.42;53.38;102682.00;5073531;28;20047;-77
2022/01/11 00:40:15;;;;;;;18.17;7.88;;;;;;;6.42;53.64;102684.72;5089089;28;20102;-76
2022/01/11 00:42:42;;;;;;;20.65;9.35;;;;;;;6.39;53.01;102677.56;5088855;28;20051;-77
2022/01/11 00:45:12;;;;;;;16.55;8.13;;;;;;;6.37;53.25;102676.69;5090475;28;20105;-77
2022/01/11 00:47:39;;;;;;;21.25;9.27;;;;;;;6.36;53.35;102680.31;5090583;28;20043;-76
2022/01/11 00:50:08;;;;;;;22.92;9.85;;;;;;;6.34;53.16;102681.28;5089751;28;20095;-76
2022/01/11 00:52:35;;;;;;;22.10;9.68;;;;;;;6.32;53.36;102685.81;5088046;28;20075;-76
2022/01/11 00:55:01;;;;;;;20.30;8.88;;;;;;;6.29;53.46;102692.13;5089505;28;20056;-76
2022/01/11 00:57:28;;;;;;;19.65;8.70;;;;;;;6.28;53.42;102681.38;5082607;28;20078;-76
2022/01/11 00:59:56;;;;;;;21.63;9.63;;;;;;;6.26;53.47;102689.50;5089981;28;20552;-77
2022/01/11 01:02:22;;;;;;;18.95;9.48;;;;;;;6.23;53.31;102684.19;5086059;28;20101;-77
2022/01/11 01:04:51;;;;;;;21.20;9.63;;;;;;;6.23;53.41;102689.56;5088849;28;20090;-77
2022/01/11 01:07:18;;;;;;;21.13;9.82;;;;;;;6.18;53.38;102688.75;5073351;28;20048;-77
2022/01/11 01:09:58;;;;;;;20.70;10.13;;;;;;;6.17;53.47;102691.50;5066052;28;20079;-77
2022/01/11 01:12:24;;;;;;;23.80;9.98;;;;;;;6.14;53.55;102689.75;5072947;28;20044;-77
2022/01/11 01:14:51;;;;;;;19.65;8.77;;;;;;;6.15;53.69;102696.03;5089838;28;20059;-77
2022/01/11 01:17:18;;;;;;;20.25;9.50;;;;;;;6.14;53.43;102707.72;5087954;28;20097;-77
2022/01/11 01:19:44;;;;;;;20.40;9.40;;;;;;;6.13;53.56;102704.16;5089968;28;20111;-77
2022/01/11 01:22:11;;;;;;;20.20;8.38;;;;;;;6.11;53.63;102706.88;5090032;28;20134;-77
2022/01/11 01:24:38;;;;;;;18.40;8.63;;;;;;;6.09;53.28;102719.47;5089900;28;20056;-77
2022/01/11 01:27:05;;;;;;;17.85;8.65;;;;;;;6.08;53.19;102720.44;5070828;28;20048;-77
2022/01/11 01:29:32;;;;;;;17.45;8.73;;;;;;;6.06;53.29;102724.94;5071078;28;20089;-77
2022/01/11 01:32:00;;;;;;;18.88;9.52;;;;;;;6.03;53.13;102725.00;5083130;28;20090;-76
2022/01/11 01:34:27;;;;;;;18.58;9.20;;;;;;;6.02;53.33;102728.59;5065635;28;20048;-77
2022/01/11 01:36:53;;;;;;;16.30;8.98;;;;;;;6.00;53.08;102726.88;5070982;28;20679;-77
2022/01/11 01:39:20;;;;;;;21.05;9.23;;;;;;;5.97;53.15;102732.31;5079459;28;20064;-77
2022/01/11 01:41:49;;;;;;;19.45;9.27;;;;;;;5.95;53.22;102732.34;5070355;28;20079;-77
2022/01/11 01:44:15;;;;;;;19.13;8.95;;;;;;;5.94;53.56;102737.75;5079696;28;20080;-77
2022/01/11 01:46:42;;;;;;;16.58;8.63;;;;;;;5.92;53.53;102736.91;5069206;28;20148;-77
2022/01/11 01:49:15;;;;;;;20.52;10.30;;;;;;;5.91;53.62;102733.31;5089762;28;20044;-77
2022/01/11 01:51:43;;;;;;;21.80;9.80;;;;;;;5.89;53.67;102735.13;5066808;28;20102;-77
2022/01/11 01:54:14;;;;;;;18.23;8.95;;;;;;;5.90;53.47;102741.44;5067409;28;20079;-77
2022/01/11 01:56:42;;;;;;;18.00;8.48;;;;;;;5.87;53.48;102742.31;5083121;28;20565;-77
2022/01/11 01:59:09;;;;;;;17.55;8.35;;;;;;;5.87;53.72;102739.63;5089899;28;20127;-77
2022/01/11 02:01:45;;;;;;;19.15;8.60;;;;;;;5.87;53.62;102747.72;5066894;28;20063;-77
2022/01/11 02:04:15;;;;;;;18.92;8.45;;;;;;;5.88;53.77;102745.94;5071388;28;20052;-77
2022/01/11 02:06:42;;;;;;;19.05;8.90;;;;;;;5.89;53.88;102748.63;5069855;28;20074;-77
2022/01/11 02:09:11;;;;;;;20.42;9.63;;;;;;;5.93;54.00;102760.25;5088451;28;20044;-77
2022/01/11 02:11:38;;;;;;;18.73;9.45;;;;;;;5.94;53.84;102762.00;5087919;28;20071;-77
2022/01/11 02:14:05;;;;;;;19.23;9.10;;;;;;;5.94;53.98;102754.81;5087122;28;20087;-77
2022/01/11 02:16:32;;;;;;;18.45;9.73;;;;;;;5.96;53.92;102766.47;5085363;28;20118;-77
2022/01/11 02:18:58;;;;;;;18.85;9.27;;;;;;;5.98;54.01;102767.34;5090786;28;20044;-78
2022/01/11 02:21:25;;;;;;;18.40;8.77;;;;;;;6.01;53.88;102763.72;5069870;28;20072;-77
2022/01/11 02:23:52;;;;;;;18.83;9.23;;;;;;;6.02;54.15;102768.16;5088821;28;20087;-77
2022/01/11 02:26:20;;;;;;;20.88;10.13;;;;;;;6.05;54.09;102769.00;5064372;28;20040;-77
2022/01/11 02:28:46;;;;;;;18.02;8.73;;;;;;;6.05;53.81;102782.47;5070466;28;20056;-77
2022/01/11 02:31:13;;;;;;;18.42;9.02;;;;;;;6.07;53.96;102780.66;5088173;28;20076;-77
2022/01/11 02:33:46;;;;;;;18.30;8.48;;;;;;;6.11;54.00;102776.09;5065293;28;20080;-77
2022/01/11 02:36:18;;;;;;;18.30;8.57;;;;;;;6.11;54.12;102784.19;5061374;28;20060;-77
2022/01/11 02:38:47;;;;;;;21.98;9.20;;;;;;;6.09;53.59;102772.56;5087214;28;20052;-77
2022/01/11 02:41:14;;;;;;;19.10;8.50;;;;;;;6.12;53.66;102775.16;5086249;28;20051;-77
2022/01/11 02:43:47;;;;;;;18.80;8.48;;;;;;;6.16;53.84;102778.72;5069829;28;20105;-77
2022/01/11 02:46:16;;;;;;;18.83;8.77;;;;;;;6.13;53.89;102776.97;5081731;28;20479;-77
2022/01/11 02:48:42;;;;;;;19.52;9.23;;;;;;;6.14;53.83;102767.94;5084987;28;20109;-77
2022/01/11 02:51:09;;;;;;;20.95;8.55;;;;;;;6.15;53.74;102775.13;5068698;28;20044;-77
2022/01/11 02:53:40;;;;;;;19.27;8.52;;;;;;;6.18;53.65;102777.75;5088090;28;20044;-77
2022/01/11 02:56:08;;;;;;;19.40;9.15;;;;;;;6.15;54.14;102768.84;5068635;28;20056;-78
2022/01/11 02:58:34;;;;;;;18.83;8.85;;;;;;;6.15;53.85;102761.66;5084950;28;20075;-78
2022/01/11 03:01:01;;;;;;;19.98;8.30;;;;;;;6.15;53.80;102768.84;5080027;28;20098;-78
2022/01/11 03:03:28;;;;;;;20.92;10.07;;;;;;;6.15;53.60;102764.34;5101473;28;20467;-77
2022/01/11 03:06:03;;;;;;;21.30;9.65;;;;;;;6.18;53.84;102769.66;5080698;28;20560;-78
2022/01/11 03:08:32;;;;;;;20.15;9.60;;;;;;;6.14;53.58;102765.25;5070723;28;20036;-78
2022/01/11 03:11:00;;;;;;;22.25;9.93;;;;;;;6.13;53.48;102763.47;5083336;28;20612;-78
2022/01/11 03:13:27;;;;;;;21.95;9.85;;;;;;;6.12;53.71;102764.38;5083566;28;20491;-78
2022/01/11 03:15:54;;;;;;;21.20;8.80;;;;;;;6.10;53.59;102764.41;5079850;28;20474;-77
2022/01/11 03:18:21;;;;;;;19.85;9.02;;;;;;;6.08;53.63;102760.88;5085525;28;20358;-78
2022/01/11 03:20:50;;;;;;;20.92;8.88;;;;;;;6.07;53.38;102766.28;5068076;28;20079;-77
2022/01/11 03:23:18;;;;;;;20.55;9.07;;;;;;;6.04;53.30;102769.91;5075202;28;20268;-77
2022/01/11 03:25:46;;;;;;;18.50;8.60;;;;;;;6.01;53.22;102775.34;5089793;28;20113;-78
2022/01/11 03:28:12;;;;;;;18.83;8.05;;;;;;;5.99;53.46;102781.72;5070047;28;20075;-78
2022/01/11 03:30:39;;;;;;;18.33;8.95;;;;;;;5.98;53.49;102785.31;5087096;28;20044;-77
2022/01/11 03:33:08;;;;;;;20.23;8.18;;;;;;;5.97;53.52;102778.13;5061509;28;20101;-78
2022/01/11 03:35:37;;;;;;;19.48;8.25;;;;;;;5.96;53.50;102793.41;5082308;28;20047;-78
2022/01/11 03:38:06;;;;;;;21.13;9.10;;;;;;;5.95;53.86;102797.03;5099306;28;20067;-78
2022/01/11 03:40:33;;;;;;;17.13;7.78;;;;;;;5.93;53.83;102801.56;5090256;28;20078;-78
2022/01/11 03:43:00;;;;;;;18.85;8.32;;;;;;;5.92;53.72;102797.09;5090363;28;20163;-78
2022/01/11 03:45:27;;;;;;;17.98;8.88;;;;;;;5.92;53.90;102807.88;5090511;28;20135;-78
2022/01/11 03:47:56;;;;;;;20.75;8.55;;;;;;;5.94;53.72;102807.84;5092734;28;20074;-78
2022/01/11 03:50:24;;;;;;;17.33;8.63;;;;;;;5.92;53.56;102810.59;5071759;28;20056;-78
2022/01/11 03:53:00;;;;;;;15.13;7.88;;;;;;;5.91;53.62;102810.59;5084828;28;20051;-78
2022/01/11 03:58:15;;;;;;;15.23;7.75;;;;;;;5.87;53.80;102801.63;5087650;28;20127;-78
2022/01/11 04:00:42;;;;;;;19.17;8.80;;;;;;;5.87;53.69;102807.03;5065537;28;20133;-78
2022/01/11 04:03:10;;;;;;;19.40;8.82;;;;;;;5.88;53.63;102810.63;5090009;28;20044;-78
2022/01/11 04:05:37;;;;;;;19.23;9.40;;;;;;;5.88;53.97;102805.25;5090121;28;20056;-78
2022/01/11 04:08:04;;;;;;;19.02;9.30;;;;;;;5.89;53.81;102810.63;5091790;28;20105;-78
2022/01/11 04:10:31;;;;;;;18.60;8.98;;;;;;;5.90;54.02;102816.91;5073201;28;20082;-78
2022/01/11 04:12:57;;;;;;;18.00;8.77;;;;;;;5.92;54.17;102821.38;5091042;28;20154;-77
2022/01/11 04:15:24;;;;;;;20.63;9.13;;;;;;;5.91;54.00;102818.69;5087949;28;20113;-78
2022/01/11 04:17:50;;;;;;;19.20;9.02;;;;;;;5.93;53.51;102817.72;5073007;28;20059;-78
2022/01/11 04:20:19;;;;;;;18.25;8.82;;;;;;;5.93;54.11;102815.03;5090617;28;20093;-78
2022/01/11 04:22:47;;;;;;;19.52;9.73;;;;;;;5.95;54.25;102815.91;5093582;28;20494;-78
2022/01/11 04:25:13;;;;;;;21.17;9.98;;;;;;;5.95;54.09;102809.63;5089690;28;20053;-78
2022/01/11 04:27:40;;;;;;;20.80;9.63;;;;;;;5.97;54.19;102818.56;5090416;28;20696;-78
2022/01/11 04:30:07;;;;;;;19.08;9.20;;;;;;;5.98;54.20;102821.25;5090499;28;20147;-78
2022/01/11 04:32:34;;;;;;;17.83;8.80;;;;;;;6.00;54.36;102823.94;5081527;28;20048;-77
2022/01/11 04:35:00;;;;;;;18.08;9.13;;;;;;;6.00;54.12;102822.13;5086773;28;20525;-78
2022/01/11 04:37:27;;;;;;;20.95;8.82;;;;;;;6.01;54.32;102815.78;5087486;28;20071;-78
2022/01/11 04:39:54;;;;;;;20.85;10.10;;;;;;;6.02;54.20;102820.28;5087050;28;20131;-78
2022/01/11 04:42:20;;;;;;;18.88;9.45;;;;;;;6.02;54.04;102812.19;5069403;28;20044;-78
2022/01/11 04:44:47;;;;;;;17.90;8.40;;;;;;;6.03;54.07;102821.16;5093202;28;20456;-78
2022/01/11 04:47:14;;;;;;;19.55;9.40;;;;;;;6.03;53.96;102811.28;5074347;28;20449;-78
2022/01/11 04:49:40;;;;;;;20.23;9.77;;;;;;;6.02;53.88;102812.19;5072409;28;20515;-78
2022/01/11 04:52:07;;;;;;;21.25;9.77;;;;;;;6.05;54.32;102820.22;5089672;28;20766;-78
2022/01/11 04:54:34;;;;;;;21.73;9.60;;;;;;;6.04;54.07;102812.16;5088405;28;23008;-78
2022/01/11 04:57:00;;;;;;;20.55;9.45;;;;;;;6.04;54.17;102817.56;5071122;28;20067;-77
2022/01/11 04:59:27;;;;;;;22.85;10.13;;;;;;;6.06;53.98;102823.81;5090307;28;20083;-78
2022/01/11 05:01:56;;;;;;;20.27;9.57;;;;;;;6.08;53.95;102819.31;5072699;28;20044;-78
2022/01/11 05:04:23;;;;;;;22.90;10.13;;;;;;;6.06;54.05;102827.41;5088988;28;20138;-78
2022/01/11 05:06:50;;;;;;;23.33;9.82;;;;;;;6.06;53.87;102824.72;5071029;28;20134;-78
2022/01/11 05:09:16;;;;;;;23.75;10.88;;;;;;;6.06;54.02;102823.81;5079873;28;20048;-78
2022/01/11 05:11:43;;;;;;;16.83;8.63;;;;;;;6.06;53.99;102830.09;5090372;28;20117;-78
2022/01/11 05:14:10;;;;;;;21.55;10.30;;;;;;;6.05;53.92;102831.03;5088577;28;20051;-78
2022/01/11 05:16:36;;;;;;;20.65;9.77;;;;;;;6.06;53.74;102826.53;5068903;28;20056;-78
2022/01/11 05:19:06;;;;;;;22.42;10.05;;;;;;;6.05;53.79;102827.44;5089190;28;20130;-78
2022/01/11 05:21:33;;;;;;;22.17;10.45;;;;;;;6.04;54.02;102834.63;5089129;28;20487;-78
2022/01/11 05:24:00;;;;;;;24.48;11.52;;;;;;;6.04;54.11;102831.94;5072075;28;20083;-78
2022/01/11 05:26:26;;;;;;;21.70;10.00;;;;;;;6.04;53.76;102831.03;5083736;28;20449;-78
2022/01/11 05:28:53;;;;;;;22.95;9.38;;;;;;;6.03;53.95;102838.25;5089372;28;20056;-77
2022/01/11 05:31:19;;;;;;;23.73;10.68;;;;;;;6.04;54.07;102834.63;5089109;28;20483;-78
2022/01/11 05:33:46;;;;;;;22.30;10.07;;;;;;;6.03;53.81;102834.66;5090897;28;20046;-78
2022/01/11 05:36:13;;;;;;;21.73;9.73;;;;;;;6.04;53.88;102840.03;5065519;28;20044;-77
2022/01/11 05:38:39;;;;;;;25.38;10.50;;;;;;;6.02;53.95;102832.88;5085669;28;20052;-78
2022/01/11 05:41:07;;;;;;;24.92;10.13;;;;;;;6.00;53.74;102835.63;5087969;28;20075;-78
2022/01/11 05:43:35;;;;;;;27.55;11.80;;;;;;;5.99;53.69;102839.22;5069267;28;20048;-78
2022/01/11 05:46:03;;;;;;;24.98;11.18;;;;;;;5.97;53.89;102837.44;5068564;28;20064;-78
2022/01/11 05:48:32;;;;;;;22.45;10.35;;;;;;;5.95;53.82;102845.56;5072624;28;20101;-78
2022/01/11 05:51:00;;;;;;;22.10;9.73;;;;;;;5.94;53.51;102838.38;5086501;28;20072;-77
2022/01/11 05:53:26;;;;;;;22.23;10.18;;;;;;;5.90;53.85;102842.06;5088931;28;20180;-78
2022/01/11 05:55:53;;;;;;;23.83;10.52;;;;;;;5.88;54.02;102848.38;5069504;28;20059;-78
2022/01/11 05:58:20;;;;;;;25.83;11.05;;;;;;;5.86;53.99;102839.38;5070052;28;20113;-78
2022/01/11 06:00:47;;;;;;;23.45;10.45;;;;;;;5.86;53.89;102839.38;5087003;28;20048;-78
2022/01/11 06:03:15;;;;;;;26.02;10.75;;;;;;;5.87;53.86;102855.53;5071267;28;20051;-78
2022/01/11 06:05:42;;;;;;;19.73;9.70;;;;;;;5.85;54.00;102853.81;5074715;28;20400;-78
2022/01/11 06:08:08;;;;;;;25.17;10.90;;;;;;;5.85;53.77;102851.09;5069786;28;20125;-78
2022/01/11 06:10:35;;;;;;;23.75;10.73;;;;;;;5.83;53.83;102856.50;5087563;28;20419;-78
2022/01/11 06:13:02;;;;;;;21.17;9.65;;;;;;;5.80;53.69;102852.97;5084594;28;20223;-78
2022/01/11 06:15:30;;;;;;;21.52;9.18;;;;;;;5.79;53.63;102861.97;5087358;28;20452;-78
2022/01/11 06:17:58;;;;;;;24.83;9.30;;;;;;;5.76;53.74;102859.31;5069571;28;20059;-78
2022/01/11 06:20:24;;;;;;;23.02;10.38;;;;;;;5.75;53.75;102866.53;5073259;28;20048;-78
2022/01/11 06:22:53;;;;;;;21.08;9.57;;;;;;;5.73;53.86;102861.16;5070019;28;20052;-77
2022/01/11 06:25:20;;;;;;;24.17;9.85;;;;;;;5.72;53.98;102862.06;5082139;28;20101;-77
2022/01/11 06:27:46;;;;;;;22.88;10.25;;;;;;;5.73;54.01;102862.94;5070122;28;20120;-77
2022/01/11 06:30:15;;;;;;;19.80;9.30;;;;;;;5.73;53.86;102861.16;5088500;28;20384;-78
2022/01/11 06:32:46;;;;;;;20.58;9.07;;;;;;;5.71;53.75;102870.16;5086744;28;20075;-77
2022/01/11 06:35:15;;;;;;;21.95;10.43;;;;;;;5.71;53.53;102867.47;5068741;28;20064;-77
2022/01/11 06:37:42;;;;;;;20.33;10.13;;;;;;;5.69;53.37;102871.97;5085322;28;20067;-76
2022/01/11 06:40:10;;;;;;;20.83;10.52;;;;;;;5.65;53.87;102868.44;5069148;28;20047;-77
2022/01/11 06:42:36;;;;;;;23.65;9.95;;;;;;;5.64;54.01;102871.16;5084630;28;20086;-77
2022/01/11 06:45:04;;;;;;;24.40;11.23;;;;;;;5.65;53.50;102875.66;5088536;28;20051;-76
2022/01/11 06:47:31;;;;;;;22.23;10.75;;;;;;;5.61;53.57;102880.16;5083105;28;20096;-77
2022/01/11 06:49:58;;;;;;;25.30;11.25;;;;;;;5.59;53.32;102879.31;5080329;28;20552;-78
2022/01/11 06:52:24;;;;;;;27.42;11.88;;;;;;;5.56;53.29;102892.84;5081240;28;20091;-77
2022/01/11 06:54:51;;;;;;;21.95;10.40;;;;;;;5.52;53.58;102880.28;5083414;28;20064;-77
2022/01/11 06:57:18;;;;;;;23.95;10.38;;;;;;;5.51;53.98;102877.66;5077646;28;20158;-77
2022/01/11 06:59:44;;;;;;;25.15;11.88;;;;;;;5.50;53.80;102886.63;5075823;28;20060;-77
2022/01/11 07:02:11;;;;;;;25.42;11.65;;;;;;;5.49;53.94;102874.97;5086324;28;20081;-77
2022/01/11 07:04:38;;;;;;;26.05;11.35;;;;;;;5.51;53.61;102888.44;5086406;28;20563;-77
2022/01/11 07:07:07;;;;;;;23.40;10.82;;;;;;;5.48;53.63;102891.16;5065005;28;20402;-77
2022/01/11 07:09:35;;;;;;;25.58;12.05;;;;;;;5.47;53.79;102894.75;5070724;28;20558;-77
2022/01/11 07:12:04;;;;;;;26.02;11.68;;;;;;;5.46;53.74;102895.66;5092005;28;20041;-77
2022/01/11 07:14:31;;;;;;;25.60;12.02;;;;;;;5.45;54.16;102900.16;5071152;28;20044;-77
2022/01/11 07:16:58;;;;;;;22.58;11.43;;;;;;;5.43;54.08;102904.69;5086786;28;20056;-78
2022/01/11 07:19:24;;;;;;;25.80;10.93;;;;;;;5.43;53.94;102906.50;5082124;28;20051;-78
2022/01/11 07:21:53;;;;;;;24.73;10.98;;;;;;;5.43;54.00;102902.00;5073894;28;20040;-78
2022/01/11 07:24:19;;;;;;;23.17;10.73;;;;;;;5.42;54.00;102905.59;5080920;28;20093;-78
2022/01/11 07:26:46;;;;;;;24.73;11.23;;;;;;;5.43;54.39;102912.78;5074625;28;20487;-79
2022/01/11 07:29:13;;;;;;;26.35;10.98;;;;;;;5.43;54.12;102912.78;5086940;28;20104;-78
2022/01/11 07:31:41;;;;;;;25.17;11.35;;;;;;;5.44;54.18;102909.13;5084902;28;20083;-78
2022/01/11 07:34:09;;;;;;;24.65;11.43;;;;;;;5.47;54.01;102919.88;5083818;28;20082;-77
2022/01/11 07:36:36;;;;;;;21.45;10.38;;;;;;;5.49;54.01;102923.47;5068985;28;20061;-76
2022/01/11 07:39:06;;;;;;;22.42;10.10;;;;;;;5.51;54.34;102924.34;5079776;28;20059;-78
2022/01/11 07:41:33;;;;;;;22.48;10.45;;;;;;;5.49;53.56;102927.97;5086007;28;20131;-77
2022/01/11 07:44:00;;;;;;;22.00;10.77;;;;;;;5.49;54.14;102930.66;5088827;28;20044;-76
2022/01/11 07:46:27;;;;;;;22.10;10.18;;;;;;;5.50;54.22;102927.94;5081958;28;20126;-76
2022/01/11 07:48:53;;;;;;;21.27;10.43;;;;;;;5.52;54.17;102930.63;5085385;28;20056;-76
2022/01/11 07:51:20;;;;;;;26.00;11.50;;;;;;;5.52;54.14;102926.09;5069753;28;20048;-77
2022/01/11 07:53:47;;;;;;;22.33;10.95;;;;;;;5.53;54.10;102935.97;5086332;28;20421;-77
2022/01/11 07:56:13;;;;;;;21.58;11.02;;;;;;;5.55;53.92;102936.84;5080600;28;20060;-77
2022/01/11 07:58:40;;;;;;;26.33;11.48;;;;;;;5.55;53.86;102933.25;5088636;28;20052;-77
2022/01/11 08:01:07;;;;;;;22.50;9.95;;;;;;;5.55;54.17;102942.22;5064176;28;20048;-77
2022/01/11 08:03:33;;;;;;;23.30;10.55;;;;;;;5.55;53.85;102934.16;5092025;28;20576;-77
2022/01/11 08:06:00;;;;;;;23.50;10.52;;;;;;;5.56;53.98;102932.34;5074695;28;20490;-76
2022/01/11 08:08:27;;;;;;;26.05;11.60;;;;;;;5.54;53.71;102937.75;5091945;28;20074;-76
2022/01/11 08:10:53;;;;;;;26.90;11.95;;;;;;;5.52;53.84;102947.66;5090503;28;20063;-76
2022/01/11 08:13:21;;;;;;;20.15;10.00;;;;;;;5.51;54.03;102942.31;5089387;28;20131;-76
2022/01/11 08:15:48;;;;;;;20.98;10.60;;;;;;;5.49;53.89;102950.41;5071725;28;20108;-76
2022/01/11 08:18:15;;;;;;;24.23;10.85;;;;;;;5.47;53.81;102945.94;5090941;28;20066;-76
2022/01/11 08:20:43;;;;;;;22.90;10.55;;;;;;;5.45;54.03;102954.03;5090837;28;20051;-77
2022/01/11 08:23:14;;;;;;;22.95;10.68;;;;;;;5.45;53.95;102959.41;5089623;28;20131;-77
2022/01/11 08:25:41;;;;;;;20.85;9.63;;;;;;;5.44;53.98;102959.44;5071935;28;20091;-78
2022/01/11 08:28:09;;;;;;;21.52;11.25;;;;;;;5.45;53.98;102966.59;5067265;28;20048;-77
2022/01/11 08:30:36;;;;;;;20.92;10.30;;;;;;;5.42;53.80;102967.56;5090363;28;20052;-79
2022/01/11 08:33:06;;;;;;;19.20;9.65;;;;;;;5.43;53.94;102963.06;5078842;28;20348;-78
2022/01/11 08:35:33;;;;;;;21.45;10.23;;;;;;;5.44;53.84;102973.78;5082923;28;20121;-78
2022/01/11 08:38:04;;;;;;;24.17;11.15;;;;;;;5.44;54.10;102972.91;5074054;28;20044;-78
2022/01/11 08:40:31;;;;;;;24.30;10.73;;;;;;;5.44;54.06;102980.97;5089832;28;20056;-78
2022/01/11 08:42:58;;;;;;;22.20;10.15;;;;;;;5.45;54.00;102983.66;5083588;28;20072;-78
2022/01/11 08:45:24;;;;;;;23.20;11.15;;;;;;;5.44;54.28;102989.94;5074325;28;20055;-78
2022/01/11 08:47:51;;;;;;;20.25;10.23;;;;;;;5.45;54.26;102991.75;5071725;28;20080;-78
2022/01/11 08:50:18;;;;;;;22.58;10.20;;;;;;;5.47;54.22;102989.94;5072214;28;20052;-78
2022/01/11 08:52:45;;;;;;;21.40;10.25;;;;;;;5.48;54.22;102989.03;5090533;28;20053;-78
2022/01/11 08:55:13;;;;;;;23.02;10.48;;;;;;;5.51;54.12;102990.81;5084609;28;20076;-80
2022/01/11 08:57:40;;;;;;;21.08;9.13;;;;;;;5.53;54.39;102987.16;5082275;28;20105;-79
2022/01/11 09:00:16;;;;;;;22.42;10.43;;;;;;;5.57;54.05;102985.34;5089772;28;20048;-80
2022/01/11 09:02:44;;;;;;;21.65;9.95;;;;;;;5.55;54.40;102982.66;5089476;28;20698;-80
2022/01/11 09:05:13;;;;;;;24.45;10.60;;;;;;;5.56;54.12;102976.34;5069820;28;20040;-80
2022/01/11 09:07:40;;;;;;;22.83;10.35;;;;;;;5.58;54.33;102977.22;5075264;28;20469;-79
2022/01/11 09:10:07;;;;;;;23.27;10.93;;;;;;;5.60;54.44;102978.09;5087813;28;20137;-80
2022/01/11 09:12:34;;;;;;;24.90;11.75;;;;;;;5.61;54.53;102984.38;5090502;28;20051;-80
2022/01/11 09:15:03;;;;;;;23.50;11.13;;;;;;;5.64;54.41;102987.03;5087078;28;20068;-80
2022/01/11 09:17:30;;;;;;;23.27;11.05;;;;;;;5.65;54.37;102986.13;5071753;28;20048;-79
2022/01/11 09:19:57;;;;;;;20.63;10.07;;;;;;;5.67;54.06;102987.00;5089421;28;20105;-80
2022/01/11 09:22:25;;;;;;;19.65;9.85;;;;;;;5.67;54.18;102995.09;5083423;28;20036;-80
2022/01/11 09:24:52;;;;;;;22.38;10.43;;;;;;;5.67;54.15;102990.59;5088711;28;20133;-78
2022/01/11 09:27:18;;;;;;;20.88;9.90;;;;;;;5.66;54.20;102999.59;5090731;28;20392;-78
2022/01/11 09:29:45;;;;;;;20.23;10.15;;;;;;;5.66;53.92;102999.59;5089890;28;20396;-78
2022/01/11 09:32:13;;;;;;;20.10;9.95;;;;;;;5.66;54.19;102996.00;5089026;28;20044;-79
2022/01/11 09:34:40;;;;;;;21.58;9.70;;;;;;;5.65;54.36;102995.09;5089666;28;20507;-78
2022/01/11 09:37:08;;;;;;;23.20;10.18;;;;;;;5.65;54.31;103008.59;5069401;28;20129;-79
2022/01/11 09:39:36;;;;;;;18.48;9.63;;;;;;;5.66;53.90;103001.38;5089321;28;20117;-78
2022/01/11 09:42:05;;;;;;;22.38;10.65;;;;;;;5.66;54.18;102999.59;5090563;28;20105;-78
2022/01/11 09:44:34;;;;;;;19.52;9.80;;;;;;;5.66;54.17;102998.69;5062306;28;20450;-77
2022/01/11 09:47:01;;;;;;;20.65;10.13;;;;;;;5.64;54.09;103001.41;5075049;28;20048;-77
2022/01/11 09:49:27;;;;;;;23.88;11.18;;;;;;;5.65;54.38;103003.19;5066089;28;20475;-77
2022/01/11 09:51:54;;;;;;;18.58;9.00;;;;;;;5.66;54.42;103004.97;5089846;28;20040;-77
2022/01/11 09:54:21;;;;;;;20.10;9.70;;;;;;;5.68;54.09;103007.66;5086221;28;20292;-76
2022/01/11 09:56:48;;;;;;;19.52;10.10;;;;;;;5.67;54.04;103006.78;5089346;28;20052;-77
2022/01/11 09:59:15;;;;;;;19.58;9.43;;;;;;;5.67;54.03;103011.25;5083192;28;20048;-78
2022/01/11 10:01:41;;;;;;;19.65;9.57;;;;;;;5.66;54.10;103004.97;5085628;28;20131;-79
2022/01/11 10:04:14;;;;;;;16.92;8.57;;;;;;;5.67;54.11;103001.38;5085395;28;20040;-80
2022/01/11 10:06:45;;;;;;;15.10;7.13;;;;;;;5.61;54.33;103006.81;5070294;28;20560;-79
2022/01/11 10:09:11;;;;;;;18.83;8.93;;;;;;;5.65;54.16;103000.50;5090221;28;20302;-78
2022/01/11 10:11:41;;;;;;;18.95;9.82;;;;;;;5.68;54.18;103002.28;5088330;28;20056;-79
2022/01/11 10:14:31;;;;;;;17.55;9.10;;;;;;;5.69;54.42;102990.56;5093894;28;20083;-80
2022/01/11 10:17:08;;;;;;;19.77;9.68;;;;;;;5.69;54.49;103002.22;5085696;28;20051;-78
2022/01/11 10:19:37;;;;;;;20.63;9.90;;;;;;;5.68;54.19;102991.50;5099206;28;20052;-81
2022/01/11 10:22:07;;;;;;;19.15;9.52;;;;;;;5.69;54.38;102987.84;5063205;28;20059;-79
2022/01/11 10:24:49;;;;;;;17.20;8.38;;;;;;;5.71;54.34;102989.63;5070940;28;20116;-79
2022/01/11 10:27:26;;;;;;;17.67;8.82;;;;;;;5.72;54.70;102994.13;5087695;28;20157;-79
2022/01/11 10:29:56;;;;;;;17.88;8.77;;;;;;;5.73;54.53;102981.53;5087107;28;20097;-78
2022/01/11 10:32:31;;;;;;;16.65;8.63;;;;;;;5.75;54.40;102990.50;5088716;28;20048;-78
2022/01/11 10:35:01;;;;;;;17.45;9.15;;;;;;;5.78;54.42;102994.94;5069558;28;20059;-78
2022/01/11 10:37:31;;;;;;;17.13;8.23;;;;;;;5.81;54.48;103000.28;5089455;28;20052;-78
2022/01/11 10:40:06;;;;;;;18.75;8.75;;;;;;;5.84;54.68;102992.19;5086117;28;20051;-78
2022/01/11 10:42:38;;;;;;;13.43;7.63;;;;;;;5.85;54.83;102994.84;5085430;28;20047;-78
2022/01/11 10:45:17;;;;;;;18.13;9.15;;;;;;;5.90;54.49;102997.53;5087579;28;20515;-78
2022/01/11 10:47:47;;;;;;;15.95;8.95;;;;;;;5.92;54.94;102995.72;5071458;28;20087;-78
2022/01/11 10:50:43;;;;;;;17.35;8.48;;;;;;;5.95;54.81;102998.34;5089173;28;20137;-78
2022/01/11 10:53:13;;;;;;;17.55;8.10;;;;;;;5.98;54.87;102993.81;5097841;28;20044;-77
2022/01/11 10:55:41;;;;;;;18.45;9.95;;;;;;;6.02;54.82;103000.94;5087155;28;20056;-79
2022/01/11 10:58:32;;;;;;;19.10;10.35;;;;;;;6.06;54.85;102996.41;5075181;28;20076;-78
2022/01/11 11:00:59;;;;;;;20.10;9.40;;;;;;;6.10;54.92;102998.13;5067674;28;20048;-79
2022/01/11 11:03:28;;;;;;;18.90;10.35;;;;;;;6.15;54.68;103004.38;5080420;28;20059;-78
2022/01/11 11:05:58;;;;;;;21.23;10.50;;;;;;;6.20;55.00;103007.88;5062743;28;20571;-78
2022/01/11 11:08:30;;;;;;;21.52;10.85;;;;;;;6.23;55.13;103002.44;5067222;28;20040;-79
2022/01/11 11:10:57;;;;;;;22.30;10.60;;;;;;;6.28;54.95;103008.66;5074197;28;20063;-80
2022/01/11 11:13:32;;;;;;;17.77;8.90;;;;;;;6.34;54.88;103008.56;5092259;28;20049;-79
2022/01/11 11:16:17;;;;;;;18.88;9.52;;;;;;;6.38;54.82;103013.00;5065907;28;20071;-79
2022/01/11 11:18:48;;;;;;;16.85;9.68;;;;;;;6.42;55.04;103017.41;5063000;28;20067;-81
2022/01/11 11:21:18;;;;;;;18.00;9.35;;;;;;;6.50;55.40;103017.34;5082141;28;20080;-79
2022/01/11 11:23:45;;;;;;;19.38;10.05;;;;;;;6.55;55.41;103015.44;5071330;28;20052;-81
2022/01/11 11:26:14;;;;;;;19.70;10.45;;;;;;;6.62;55.25;103014.44;5090983;28;20051;-80
2022/01/11 11:28:41;;;;;;;18.23;10.15;;;;;;;6.69;55.67;103010.72;5066597;28;20534;-79